sensor_id;sensor_type;location;lat;lon;timestamp;temperature;humidity
74294;DHT22;64044;59.904;10.738;2023-02-24T00:01:45;3.90;62.80
74294;DHT22;64044;59.904;10.738;2023-02-24T00:04:16;3.90;62.60
74294;DHT22;64044;59.904;10.738;2023-02-24T00:06:43;3.90;62.50
74294;DHT22;64044;59.904;10.738;2023-02-24T00:09:12;3.90;62.70
74294;DHT22;64044;59.904;10.738;2023-02-24T00:11:44;3.90;63.80
74294;DHT22;64044;59.904;10.738;2023-02-24T00:14:13;3.90;64.40
74294;DHT22;64044;59.904;10.738;2023-02-24T00:16:43;3.90;62.10
74294;DHT22;64044;59.904;10.738;2023-02-24T00:19:12;3.90;62.30
74294;DHT22;64044;59.904;10.738;2023-02-24T00:21:38;3.90;63.00
74294;DHT22;64044;59.904;10.738;2023-02-24T00:24:04;3.90;63.20
74294;DHT22;64044;59.904;10.738;2023-02-24T00:26:31;3.90;63.40
74294;DHT22;64044;59.904;10.738;2023-02-24T00:28:57;3.90;63.70
74294;DHT22;64044;59.904;10.738;2023-02-24T00:31:27;3.90;63.70
74294;DHT22;64044;59.904;10.738;2023-02-24T00:33:58;3.90;65.60
74294;DHT22;64044;59.904;10.738;2023-02-24T00:36:26;3.90;63.20
74294;DHT22;64044;59.904;10.738;2023-02-24T00:38:57;3.90;63.50
74294;DHT22;64044;59.904;10.738;2023-02-24T00:41:30;3.90;64.00
74294;DHT22;64044;59.904;10.738;2023-02-24T00:44:01;3.90;64.40
74294;DHT22;64044;59.904;10.738;2023-02-24T00:46:34;3.90;64.70
74294;DHT22;64044;59.904;10.738;2023-02-24T00:49:01;4.00;64.80
74294;DHT22;64044;59.904;10.738;2023-02-24T00:51:34;4.00;64.90
74294;DHT22;64044;59.904;10.738;2023-02-24T00:54:00;4.00;64.80
74294;DHT22;64044;59.904;10.738;2023-02-24T00:56:27;4.00;64.70
74294;DHT22;64044;59.904;10.738;2023-02-24T00:58:55;4.10;64.80
74294;DHT22;64044;59.904;10.738;2023-02-24T01:01:24;4.10;64.70
74294;DHT22;64044;59.904;10.738;2023-02-24T01:03:51;4.10;64.90
74294;DHT22;64044;59.904;10.738;2023-02-24T01:06:23;4.10;64.90
74294;DHT22;64044;59.904;10.738;2023-02-24T01:08:50;4.10;64.80
74294;DHT22;64044;59.904;10.738;2023-02-24T01:11:18;4.10;64.70
74294;DHT22;64044;59.904;10.738;2023-02-24T01:14:08;4.10;64.80
74294;DHT22;64044;59.904;10.738;2023-02-24T01:16:34;4.10;64.90
74294;DHT22;64044;59.904;10.738;2023-02-24T01:19:01;4.10;64.70
74294;DHT22;64044;59.904;10.738;2023-02-24T01:21:27;4.10;64.80
74294;DHT22;64044;59.904;10.738;2023-02-24T01:23:53;4.10;64.90
74294;DHT22;64044;59.904;10.738;2023-02-24T01:26:19;4.10;64.90
74294;DHT22;64044;59.904;10.738;2023-02-24T01:28:45;4.10;65.20
74294;DHT22;64044;59.904;10.738;2023-02-24T01:31:11;4.10;65.30
74294;DHT22;64044;59.904;10.738;2023-02-24T01:33:40;4.20;65.30
74294;DHT22;64044;59.904;10.738;2023-02-24T01:36:14;4.20;65.60
74294;DHT22;64044;59.904;10.738;2023-02-24T01:38:41;4.20;65.90
74294;DHT22;64044;59.904;10.738;2023-02-24T01:41:11;4.20;65.50
74294;DHT22;64044;59.904;10.738;2023-02-24T01:43:58;4.20;65.50
74294;DHT22;64044;59.904;10.738;2023-02-24T01:46:29;4.20;66.40
74294;DHT22;64044;59.904;10.738;2023-02-24T01:49:43;4.20;65.50
74294;DHT22;64044;59.904;10.738;2023-02-24T01:51:56;4.20;65.60
74294;DHT22;64044;59.904;10.738;2023-02-24T01:54:30;4.20;65.90
74294;DHT22;64044;59.904;10.738;2023-02-24T01:56:57;4.20;65.30
74294;DHT22;64044;59.904;10.738;2023-02-24T01:59:27;4.20;65.30
74294;DHT22;64044;59.904;10.738;2023-02-24T02:01:58;4.20;65.50
74294;DHT22;64044;59.904;10.738;2023-02-24T02:04:37;4.20;65.60
74294;DHT22;64044;59.904;10.738;2023-02-24T02:07:04;4.30;65.70
74294;DHT22;64044;59.904;10.738;2023-02-24T02:09:31;4.30;65.40
74294;DHT22;64044;59.904;10.738;2023-02-24T02:11:58;4.30;65.50
74294;DHT22;64044;59.904;10.738;2023-02-24T02:14:26;4.30;65.70
74294;DHT22;64044;59.904;10.738;2023-02-24T02:17:15;4.20;65.80
74294;DHT22;64044;59.904;10.738;2023-02-24T02:23:33;4.30;66.60
74294;DHT22;64044;59.904;10.738;2023-02-24T02:31:46;4.30;66.30
74294;DHT22;64044;59.904;10.738;2023-02-24T02:34:23;4.30;65.40
74294;DHT22;64044;59.904;10.738;2023-02-24T02:42:02;4.30;65.10
74294;DHT22;64044;59.904;10.738;2023-02-24T02:44:39;4.30;64.70
74294;DHT22;64044;59.904;10.738;2023-02-24T02:50:19;4.30;66.00
74294;DHT22;64044;59.904;10.738;2023-02-24T02:52:51;4.30;65.00
74294;DHT22;64044;59.904;10.738;2023-02-24T02:55:29;4.30;65.20
74294;DHT22;64044;59.904;10.738;2023-02-24T02:57:58;4.30;65.00
74294;DHT22;64044;59.904;10.738;2023-02-24T03:00:28;4.30;64.60
74294;DHT22;64044;59.904;10.738;2023-02-24T03:03:03;4.20;64.60
74294;DHT22;64044;59.904;10.738;2023-02-24T03:05:41;4.20;64.80
74294;DHT22;64044;59.904;10.738;2023-02-24T03:08:13;4.30;65.50
74294;DHT22;64044;59.904;10.738;2023-02-24T03:10:42;4.30;65.40
74294;DHT22;64044;59.904;10.738;2023-02-24T03:13:11;4.20;65.30
74294;DHT22;64044;59.904;10.738;2023-02-24T03:15:39;4.20;65.50
74294;DHT22;64044;59.904;10.738;2023-02-24T03:18:15;4.20;65.70
74294;DHT22;64044;59.904;10.738;2023-02-24T03:20:52;4.20;65.80
74294;DHT22;64044;59.904;10.738;2023-02-24T03:23:23;4.30;66.00
74294;DHT22;64044;59.904;10.738;2023-02-24T03:26:12;4.30;65.60
74294;DHT22;64044;59.904;10.738;2023-02-24T03:28:52;4.30;65.80
74294;DHT22;64044;59.904;10.738;2023-02-24T03:31:32;4.30;65.70
74294;DHT22;64044;59.904;10.738;2023-02-24T03:34:07;4.30;65.60
74294;DHT22;64044;59.904;10.738;2023-02-24T03:36:34;4.30;65.20
74294;DHT22;64044;59.904;10.738;2023-02-24T03:39:00;4.30;65.10
74294;DHT22;64044;59.904;10.738;2023-02-24T03:41:35;4.30;65.00
74294;DHT22;64044;59.904;10.738;2023-02-24T03:44:03;4.30;65.20
74294;DHT22;64044;59.904;10.738;2023-02-24T03:46:31;4.30;65.00
74294;DHT22;64044;59.904;10.738;2023-02-24T03:49:08;4.20;64.80
74294;DHT22;64044;59.904;10.738;2023-02-24T03:51:43;4.20;64.90
74294;DHT22;64044;59.904;10.738;2023-02-24T03:54:25;4.20;64.40
74294;DHT22;64044;59.904;10.738;2023-02-24T03:57:16;4.20;65.00
74294;DHT22;64044;59.904;10.738;2023-02-24T03:59:54;4.20;65.50
74294;DHT22;64044;59.904;10.738;2023-02-24T04:02:27;4.20;65.00
74294;DHT22;64044;59.904;10.738;2023-02-24T04:05:07;4.20;64.70
74294;DHT22;64044;59.904;10.738;2023-02-24T04:10:40;4.20;65.50
74294;DHT22;64044;59.904;10.738;2023-02-24T04:16:16;4.10;65.30
74294;DHT22;64044;59.904;10.738;2023-02-24T04:18:48;4.10;64.70
74294;DHT22;64044;59.904;10.738;2023-02-24T04:21:16;4.10;65.20
74294;DHT22;64044;59.904;10.738;2023-02-24T04:23:44;4.10;65.20
74294;DHT22;64044;59.904;10.738;2023-02-24T04:26:12;4.20;65.10
74294;DHT22;64044;59.904;10.738;2023-02-24T04:28:41;4.20;65.10
74294;DHT22;64044;59.904;10.738;2023-02-24T04:31:10;4.10;64.90
74294;DHT22;64044;59.904;10.738;2023-02-24T04:33:42;4.20;65.00
74294;DHT22;64044;59.904;10.738;2023-02-24T04:36:08;4.10;64.90
74294;DHT22;64044;59.904;10.738;2023-02-24T04:38:37;4.20;64.90
74294;DHT22;64044;59.904;10.738;2023-02-24T04:41:03;4.20;65.10
74294;DHT22;64044;59.904;10.738;2023-02-24T04:43:29;4.20;65.00
74294;DHT22;64044;59.904;10.738;2023-02-24T04:45:55;4.10;65.00
74294;DHT22;64044;59.904;10.738;2023-02-24T04:48:21;4.10;65.20
74294;DHT22;64044;59.904;10.738;2023-02-24T04:50:46;4.20;65.40
74294;DHT22;64044;59.904;10.738;2023-02-24T04:53:19;4.20;65.40
74294;DHT22;64044;59.904;10.738;2023-02-24T04:55:51;4.10;65.20
74294;DHT22;64044;59.904;10.738;2023-02-24T04:58:22;4.20;65.20
74294;DHT22;64044;59.904;10.738;2023-02-24T05:00:53;4.10;65.10
74294;DHT22;64044;59.904;10.738;2023-02-24T05:03:20;4.10;64.60
74294;DHT22;64044;59.904;10.738;2023-02-24T05:05:51;4.10;65.00
74294;DHT22;64044;59.904;10.738;2023-02-24T05:08:18;4.10;65.00
74294;DHT22;64044;59.904;10.738;2023-02-24T05:10:45;4.10;64.70
74294;DHT22;64044;59.904;10.738;2023-02-24T05:13:27;4.10;64.80
74294;DHT22;64044;59.904;10.738;2023-02-24T05:15:54;4.00;65.00
74294;DHT22;64044;59.904;10.738;2023-02-24T05:18:21;4.00;64.80
74294;DHT22;64044;59.904;10.738;2023-02-24T05:20:53;4.00;64.90
74294;DHT22;64044;59.904;10.738;2023-02-24T05:23:40;4.00;65.00
74294;DHT22;64044;59.904;10.738;2023-02-24T05:26:10;4.00;64.90
74294;DHT22;64044;59.904;10.738;2023-02-24T05:28:38;4.00;64.80
74294;DHT22;64044;59.904;10.738;2023-02-24T05:31:13;3.90;64.70
74294;DHT22;64044;59.904;10.738;2023-02-24T05:34:07;3.90;65.00
74294;DHT22;64044;59.904;10.738;2023-02-24T05:36:38;3.90;65.40
74294;DHT22;64044;59.904;10.738;2023-02-24T05:39:05;3.90;64.90
74294;DHT22;64044;59.904;10.738;2023-02-24T05:41:39;3.90;64.80
74294;DHT22;64044;59.904;10.738;2023-02-24T05:44:13;3.90;65.00
74294;DHT22;64044;59.904;10.738;2023-02-24T05:46:42;3.90;65.20
74294;DHT22;64044;59.904;10.738;2023-02-24T05:49:18;3.90;64.40
74294;DHT22;64044;59.904;10.738;2023-02-24T05:51:49;3.90;65.10
74294;DHT22;64044;59.904;10.738;2023-02-24T05:54:26;3.90;64.80
74294;DHT22;64044;59.904;10.738;2023-02-24T05:56:58;3.90;64.70
74294;DHT22;64044;59.904;10.738;2023-02-24T05:59:25;3.80;64.60
74294;DHT22;64044;59.904;10.738;2023-02-24T06:02:01;3.90;64.40
74294;DHT22;64044;59.904;10.738;2023-02-24T06:04:32;3.90;64.10
74294;DHT22;64044;59.904;10.738;2023-02-24T06:07:21;3.80;64.00
74294;DHT22;64044;59.904;10.738;2023-02-24T06:09:56;3.80;64.00
74294;DHT22;64044;59.904;10.738;2023-02-24T06:14:50;3.80;64.20
74294;DHT22;64044;59.904;10.738;2023-02-24T06:17:18;3.80;64.10
74294;DHT22;64044;59.904;10.738;2023-02-24T06:19:45;3.80;63.90
74294;DHT22;64044;59.904;10.738;2023-02-24T06:22:16;3.80;64.00
74294;DHT22;64044;59.904;10.738;2023-02-24T06:24:44;3.70;64.20
74294;DHT22;64044;59.904;10.738;2023-02-24T06:27:13;3.70;64.00
74294;DHT22;64044;59.904;10.738;2023-02-24T06:29:46;3.80;64.40
74294;DHT22;64044;59.904;10.738;2023-02-24T06:32:17;3.70;64.00
74294;DHT22;64044;59.904;10.738;2023-02-24T06:34:43;3.70;64.00
74294;DHT22;64044;59.904;10.738;2023-02-24T06:37:11;3.70;64.20
74294;DHT22;64044;59.904;10.738;2023-02-24T06:39:37;3.70;64.40
74294;DHT22;64044;59.904;10.738;2023-02-24T06:42:04;3.70;64.10
74294;DHT22;64044;59.904;10.738;2023-02-24T06:44:35;3.70;64.30
74294;DHT22;64044;59.904;10.738;2023-02-24T06:47:02;3.70;64.40
74294;DHT22;64044;59.904;10.738;2023-02-24T06:49:28;3.70;64.50
74294;DHT22;64044;59.904;10.738;2023-02-24T06:51:54;3.70;64.50
74294;DHT22;64044;59.904;10.738;2023-02-24T06:54:25;3.80;64.50
74294;DHT22;64044;59.904;10.738;2023-02-24T06:56:55;3.70;64.70
74294;DHT22;64044;59.904;10.738;2023-02-24T06:59:23;3.80;64.60
74294;DHT22;64044;59.904;10.738;2023-02-24T07:01:54;3.80;64.40
74294;DHT22;64044;59.904;10.738;2023-02-24T07:04:21;3.80;64.20
74294;DHT22;64044;59.904;10.738;2023-02-24T07:06:53;3.80;64.30
74294;DHT22;64044;59.904;10.738;2023-02-24T07:09:23;3.80;64.60
74294;DHT22;64044;59.904;10.738;2023-02-24T07:11:50;3.90;64.40
74294;DHT22;64044;59.904;10.738;2023-02-24T07:14:22;3.90;64.40
74294;DHT22;64044;59.904;10.738;2023-02-24T07:16:48;3.90;64.40
74294;DHT22;64044;59.904;10.738;2023-02-24T07:19:22;3.90;64.40
74294;DHT22;64044;59.904;10.738;2023-02-24T07:21:48;3.90;64.00
74294;DHT22;64044;59.904;10.738;2023-02-24T07:24:19;3.90;64.00
74294;DHT22;64044;59.904;10.738;2023-02-24T07:26:59;4.00;64.30
74294;DHT22;64044;59.904;10.738;2023-02-24T07:29:26;4.00;64.40
74294;DHT22;64044;59.904;10.738;2023-02-24T07:31:53;4.00;64.30
74294;DHT22;64044;59.904;10.738;2023-02-24T07:34:23;4.10;64.50
74294;DHT22;64044;59.904;10.738;2023-02-24T07:36:53;4.10;64.40
74294;DHT22;64044;59.904;10.738;2023-02-24T07:39:20;4.10;64.00
74294;DHT22;64044;59.904;10.738;2023-02-24T07:41:51;4.20;63.90
74294;DHT22;64044;59.904;10.738;2023-02-24T07:44:19;4.20;63.90
74294;DHT22;64044;59.904;10.738;2023-02-24T07:46:45;4.20;64.10
74294;DHT22;64044;59.904;10.738;2023-02-24T07:49:18;4.20;64.10
74294;DHT22;64044;59.904;10.738;2023-02-24T07:51:45;4.20;63.80
74294;DHT22;64044;59.904;10.738;2023-02-24T07:54:17;4.30;63.80
74294;DHT22;64044;59.904;10.738;2023-02-24T07:56:43;4.30;63.60
74294;DHT22;64044;59.904;10.738;2023-02-24T07:59:22;4.30;63.50
74294;DHT22;64044;59.904;10.738;2023-02-24T08:01:47;4.30;63.20
74294;DHT22;64044;59.904;10.738;2023-02-24T08:04:23;4.30;63.00
74294;DHT22;64044;59.904;10.738;2023-02-24T08:06:49;4.40;63.20
74294;DHT22;64044;59.904;10.738;2023-02-24T08:09:30;4.40;63.10
74294;DHT22;64044;59.904;10.738;2023-02-24T08:12:18;4.30;63.30
74294;DHT22;64044;59.904;10.738;2023-02-24T08:14:47;4.40;63.00
74294;DHT22;64044;59.904;10.738;2023-02-24T08:17:19;4.40;63.00
74294;DHT22;64044;59.904;10.738;2023-02-24T08:19:46;4.40;62.80
74294;DHT22;64044;59.904;10.738;2023-02-24T08:22:13;4.40;62.90
74294;DHT22;64044;59.904;10.738;2023-02-24T08:24:58;4.40;63.00
74294;DHT22;64044;59.904;10.738;2023-02-24T08:27:31;4.40;63.10
74294;DHT22;64044;59.904;10.738;2023-02-24T08:29:58;4.40;62.90
74294;DHT22;64044;59.904;10.738;2023-02-24T08:35:13;4.50;63.30
74294;DHT22;64044;59.904;10.738;2023-02-24T08:37:53;4.50;63.30
74294;DHT22;64044;59.904;10.738;2023-02-24T08:40:25;4.50;63.30
74294;DHT22;64044;59.904;10.738;2023-02-24T08:43:10;4.50;63.20
74294;DHT22;64044;59.904;10.738;2023-02-24T08:48:57;4.60;63.80
74294;DHT22;64044;59.904;10.738;2023-02-24T08:51:35;4.70;62.70
74294;DHT22;64044;59.904;10.738;2023-02-24T08:56:41;4.70;62.70
74294;DHT22;64044;59.904;10.738;2023-02-24T08:59:16;4.70;62.60
74294;DHT22;64044;59.904;10.738;2023-02-24T09:02:05;4.70;62.30
74294;DHT22;64044;59.904;10.738;2023-02-24T09:05:04;4.80;62.30
74294;DHT22;64044;59.904;10.738;2023-02-24T09:07:37;4.80;62.30
74294;DHT22;64044;59.904;10.738;2023-02-24T09:10:07;4.80;62.00
74294;DHT22;64044;59.904;10.738;2023-02-24T09:12:36;4.90;62.00
74294;DHT22;64044;59.904;10.738;2023-02-24T09:15:07;4.90;61.90
74294;DHT22;64044;59.904;10.738;2023-02-24T09:17:33;4.90;61.80
74294;DHT22;64044;59.904;10.738;2023-02-24T09:20:10;5.00;61.70
74294;DHT22;64044;59.904;10.738;2023-02-24T09:22:56;5.00;61.50
74294;DHT22;64044;59.904;10.738;2023-02-24T09:25:29;5.00;61.20
74294;DHT22;64044;59.904;10.738;2023-02-24T09:28:26;5.10;61.10
74294;DHT22;64044;59.904;10.738;2023-02-24T09:30:58;5.10;61.60
74294;DHT22;64044;59.904;10.738;2023-02-24T09:38:54;5.20;60.40
74294;DHT22;64044;59.904;10.738;2023-02-24T09:41:33;5.20;60.50
74294;DHT22;64044;59.904;10.738;2023-02-24T09:47:42;5.20;60.30
74294;DHT22;64044;59.904;10.738;2023-02-24T09:53:02;5.30;60.30
74294;DHT22;64044;59.904;10.738;2023-02-24T09:55:47;5.40;60.40
74294;DHT22;64044;59.904;10.738;2023-02-24T10:09:32;5.70;59.80
74294;DHT22;64044;59.904;10.738;2023-02-24T10:17:23;6.00;59.50
74294;DHT22;64044;59.904;10.738;2023-02-24T10:22:58;6.20;59.50
74294;DHT22;64044;59.904;10.738;2023-02-24T10:25:48;6.30;59.00
74294;DHT22;64044;59.904;10.738;2023-02-24T10:28:43;6.40;59.00
74294;DHT22;64044;59.904;10.738;2023-02-24T10:31:44;6.50;58.80
74294;DHT22;64044;59.904;10.738;2023-02-24T10:34:14;6.60;58.50
74294;DHT22;64044;59.904;10.738;2023-02-24T10:36:49;6.60;58.40
74294;DHT22;64044;59.904;10.738;2023-02-24T10:39:20;6.70;57.90
74294;DHT22;64044;59.904;10.738;2023-02-24T10:42:08;6.70;57.70
74294;DHT22;64044;59.904;10.738;2023-02-24T10:44:42;6.80;57.50
74294;DHT22;64044;59.904;10.738;2023-02-24T10:47:18;6.80;57.60
74294;DHT22;64044;59.904;10.738;2023-02-24T10:49:50;6.90;57.50
74294;DHT22;64044;59.904;10.738;2023-02-24T10:52:42;6.80;57.10
74294;DHT22;64044;59.904;10.738;2023-02-24T10:55:43;6.80;56.80
74294;DHT22;64044;59.904;10.738;2023-02-24T10:58:35;6.90;56.70
74294;DHT22;64044;59.904;10.738;2023-02-24T11:01:29;7.10;57.20
74294;DHT22;64044;59.904;10.738;2023-02-24T11:04:17;7.30;57.60
74294;DHT22;64044;59.904;10.738;2023-02-24T11:07:11;7.50;57.80
74294;DHT22;64044;59.904;10.738;2023-02-24T11:09:39;7.80;57.10
74294;DHT22;64044;59.904;10.738;2023-02-24T11:12:22;8.00;57.10
74294;DHT22;64044;59.904;10.738;2023-02-24T11:15:30;8.40;57.70
74294;DHT22;64044;59.904;10.738;2023-02-24T11:18:22;8.70;56.20
74294;DHT22;64044;59.904;10.738;2023-02-24T11:21:02;9.10;56.30
74294;DHT22;64044;59.904;10.738;2023-02-24T11:23:39;9.30;55.50
74294;DHT22;64044;59.904;10.738;2023-02-24T11:26:14;9.60;55.20
74294;DHT22;64044;59.904;10.738;2023-02-24T11:37:07;10.10;52.50
74294;DHT22;64044;59.904;10.738;2023-02-24T11:39:58;10.20;52.90
74294;DHT22;64044;59.904;10.738;2023-02-24T11:45:26;10.30;52.50
74294;DHT22;64044;59.904;10.738;2023-02-24T11:53:33;10.40;52.00
74294;DHT22;64044;59.904;10.738;2023-02-24T11:58:53;10.50;51.40
74294;DHT22;64044;59.904;10.738;2023-02-24T12:01:39;10.60;52.20
74294;DHT22;64044;59.904;10.738;2023-02-24T12:04:26;11.00;53.00
74294;DHT22;64044;59.904;10.738;2023-02-24T12:09:42;12.00;52.60
74294;DHT22;64044;59.904;10.738;2023-02-24T12:12:48;12.70;53.20
74294;DHT22;64044;59.904;10.738;2023-02-24T12:15:36;13.50;51.20
74294;DHT22;64044;59.904;10.738;2023-02-24T12:18:19;14.30;51.40
74294;DHT22;64044;59.904;10.738;2023-02-24T12:23:33;15.50;49.60
74294;DHT22;64044;59.904;10.738;2023-02-24T12:42:33;15.40;41.60
74294;DHT22;64044;59.904;10.738;2023-02-24T12:45:21;15.00;41.90
74294;DHT22;64044;59.904;10.738;2023-02-24T12:56:27;13.50;42.70
74294;DHT22;64044;59.904;10.738;2023-02-24T12:59:03;13.10;43.00
74294;DHT22;64044;59.904;10.738;2023-02-24T13:01:42;12.80;42.90
74294;DHT22;64044;59.904;10.738;2023-02-24T13:04:16;12.40;43.60
74294;DHT22;64044;59.904;10.738;2023-02-24T13:15:31;11.20;45.40
74294;DHT22;64044;59.904;10.738;2023-02-24T13:17:58;11.00;45.90
74294;DHT22;64044;59.904;10.738;2023-02-24T13:22:57;10.60;46.70
74294;DHT22;64044;59.904;10.738;2023-02-24T13:25:53;10.40;47.10
74294;DHT22;64044;59.904;10.738;2023-02-24T13:28:26;10.20;47.60
74294;DHT22;64044;59.904;10.738;2023-02-24T13:33:32;9.90;48.10
74294;DHT22;64044;59.904;10.738;2023-02-24T13:36:19;9.80;48.40
74294;DHT22;64044;59.904;10.738;2023-02-24T13:39:07;9.70;48.70
74294;DHT22;64044;59.904;10.738;2023-02-24T13:41:44;9.60;49.00
74294;DHT22;64044;59.904;10.738;2023-02-24T13:44:27;9.60;49.20
74294;DHT22;64044;59.904;10.738;2023-02-24T13:50:06;9.50;49.40
74294;DHT22;64044;59.904;10.738;2023-02-24T13:53:09;9.40;49.60
74294;DHT22;64044;59.904;10.738;2023-02-24T14:01:50;9.10;49.60
74294;DHT22;64044;59.904;10.738;2023-02-24T14:06:54;8.90;50.00
74294;DHT22;64044;59.904;10.738;2023-02-24T14:09:24;8.80;50.20
74294;DHT22;64044;59.904;10.738;2023-02-24T14:14:42;8.70;50.60
74294;DHT22;64044;59.904;10.738;2023-02-24T14:17:28;8.60;50.80
74294;DHT22;64044;59.904;10.738;2023-02-24T14:22:32;8.50;51.20
74294;DHT22;64044;59.904;10.738;2023-02-24T14:25:03;8.40;51.50
74294;DHT22;64044;59.904;10.738;2023-02-24T14:27:30;8.30;51.50
74294;DHT22;64044;59.904;10.738;2023-02-24T14:29:56;8.30;51.90
74294;DHT22;64044;59.904;10.738;2023-02-24T14:32:24;8.20;51.70
74294;DHT22;64044;59.904;10.738;2023-02-24T14:34:52;8.10;51.80
74294;DHT22;64044;59.904;10.738;2023-02-24T14:37:24;8.10;52.10
74294;DHT22;64044;59.904;10.738;2023-02-24T14:39:56;8.00;52.40
74294;DHT22;64044;59.904;10.738;2023-02-24T14:42:22;7.90;52.30
74294;DHT22;64044;59.904;10.738;2023-02-24T14:44:50;7.90;52.40
74294;DHT22;64044;59.904;10.738;2023-02-24T14:47:18;7.80;52.00
74294;DHT22;64044;59.904;10.738;2023-02-24T14:49:53;7.80;52.20
74294;DHT22;64044;59.904;10.738;2023-02-24T14:55:20;7.70;52.10
74294;DHT22;64044;59.904;10.738;2023-02-24T14:57:51;7.70;52.10
74294;DHT22;64044;59.904;10.738;2023-02-24T15:00:26;7.60;51.90
74294;DHT22;64044;59.904;10.738;2023-02-24T15:05:49;7.60;51.70
74294;DHT22;64044;59.904;10.738;2023-02-24T15:10:54;7.60;51.50
74294;DHT22;64044;59.904;10.738;2023-02-24T15:13:41;7.60;51.50
74294;DHT22;64044;59.904;10.738;2023-02-24T15:16:16;7.60;51.30
74294;DHT22;64044;59.904;10.738;2023-02-24T15:18:49;7.60;51.10
74294;DHT22;64044;59.904;10.738;2023-02-24T15:21:21;7.50;50.90
74294;DHT22;64044;59.904;10.738;2023-02-24T15:23:47;7.50;50.60
74294;DHT22;64044;59.904;10.738;2023-02-24T15:26:29;7.50;50.80
74294;DHT22;64044;59.904;10.738;2023-02-24T15:29:18;7.40;50.50
74294;DHT22;64044;59.904;10.738;2023-02-24T15:31:48;7.40;50.50
74294;DHT22;64044;59.904;10.738;2023-02-24T15:34:26;7.40;50.50
74294;DHT22;64044;59.904;10.738;2023-02-24T15:36:57;7.30;50.30
74294;DHT22;64044;59.904;10.738;2023-02-24T15:39:28;7.30;50.20
74294;DHT22;64044;59.904;10.738;2023-02-24T15:42:23;7.30;50.30
74294;DHT22;64044;59.904;10.738;2023-02-24T15:44:57;7.30;49.90
74294;DHT22;64044;59.904;10.738;2023-02-24T15:47:27;7.20;49.80
74294;DHT22;64044;59.904;10.738;2023-02-24T15:49:54;7.30;50.00
74294;DHT22;64044;59.904;10.738;2023-02-24T15:52:22;7.30;49.90
74294;DHT22;64044;59.904;10.738;2023-02-24T15:54:49;7.20;49.70
74294;DHT22;64044;59.904;10.738;2023-02-24T15:57:16;7.10;49.30
74294;DHT22;64044;59.904;10.738;2023-02-24T15:59:43;7.10;49.30
74294;DHT22;64044;59.904;10.738;2023-02-24T16:02:19;7.10;49.40
74294;DHT22;64044;59.904;10.738;2023-02-24T16:04:46;7.00;49.10
74294;DHT22;64044;59.904;10.738;2023-02-24T16:07:28;7.00;49.20
74294;DHT22;64044;59.904;10.738;2023-02-24T16:09:56;7.00;49.10
74294;DHT22;64044;59.904;10.738;2023-02-24T16:12:26;6.90;49.10
74294;DHT22;64044;59.904;10.738;2023-02-24T16:15:23;6.90;49.00
74294;DHT22;64044;59.904;10.738;2023-02-24T16:17:50;6.90;49.00
74294;DHT22;64044;59.904;10.738;2023-02-24T16:20:22;6.80;49.10
74294;DHT22;64044;59.904;10.738;2023-02-24T16:22:53;6.80;49.00
74294;DHT22;64044;59.904;10.738;2023-02-24T16:25:19;6.80;48.90
74294;DHT22;64044;59.904;10.738;2023-02-24T16:27:45;6.70;48.80
74294;DHT22;64044;59.904;10.738;2023-02-24T16:30:18;6.70;48.80
74294;DHT22;64044;59.904;10.738;2023-02-24T16:32:44;6.60;48.60
74294;DHT22;64044;59.904;10.738;2023-02-24T16:35:11;6.60;48.50
74294;DHT22;64044;59.904;10.738;2023-02-24T16:37:37;6.60;48.60
74294;DHT22;64044;59.904;10.738;2023-02-24T16:40:09;6.50;48.50
74294;DHT22;64044;59.904;10.738;2023-02-24T16:42:39;6.50;48.60
74294;DHT22;64044;59.904;10.738;2023-02-24T16:45:05;6.40;48.50
74294;DHT22;64044;59.904;10.738;2023-02-24T16:47:31;6.40;48.60
74294;DHT22;64044;59.904;10.738;2023-02-24T16:49:58;6.30;48.50
74294;DHT22;64044;59.904;10.738;2023-02-24T16:52:23;6.30;48.50
74294;DHT22;64044;59.904;10.738;2023-02-24T16:54:49;6.20;48.50
74294;DHT22;64044;59.904;10.738;2023-02-24T16:57:15;6.20;48.50
74294;DHT22;64044;59.904;10.738;2023-02-24T16:59:41;6.20;48.60
74294;DHT22;64044;59.904;10.738;2023-02-24T17:02:16;6.10;48.60
74294;DHT22;64044;59.904;10.738;2023-02-24T17:04:42;6.00;48.10
74294;DHT22;64044;59.904;10.738;2023-02-24T17:07:09;6.00;48.40
74294;DHT22;64044;59.904;10.738;2023-02-24T17:09:35;6.00;48.50
74294;DHT22;64044;59.904;10.738;2023-02-24T17:12:01;5.90;48.40
74294;DHT22;64044;59.904;10.738;2023-02-24T17:14:26;5.90;48.40
74294;DHT22;64044;59.904;10.738;2023-02-24T17:16:52;5.80;48.50
74294;DHT22;64044;59.904;10.738;2023-02-24T17:19:18;5.80;48.40
74294;DHT22;64044;59.904;10.738;2023-02-24T17:21:44;5.80;48.40
74294;DHT22;64044;59.904;10.738;2023-02-24T17:24:15;5.70;48.50
74294;DHT22;64044;59.904;10.738;2023-02-24T17:26:41;5.70;48.50
74294;DHT22;64044;59.904;10.738;2023-02-24T17:29:07;5.70;48.40
74294;DHT22;64044;59.904;10.738;2023-02-24T17:31:32;5.60;49.10
74294;DHT22;64044;59.904;10.738;2023-02-24T17:33:59;5.60;48.50
74294;DHT22;64044;59.904;10.738;2023-02-24T17:36:25;5.60;48.70
74294;DHT22;64044;59.904;10.738;2023-02-24T17:38:50;5.50;48.50
74294;DHT22;64044;59.904;10.738;2023-02-24T17:41:16;5.50;48.60
74294;DHT22;64044;59.904;10.738;2023-02-24T17:43:42;5.40;48.60
74294;DHT22;64044;59.904;10.738;2023-02-24T17:46:07;5.40;48.60
74294;DHT22;64044;59.904;10.738;2023-02-24T17:48:33;5.30;48.60
74294;DHT22;64044;59.904;10.738;2023-02-24T17:50:59;5.30;48.70
74294;DHT22;64044;59.904;10.738;2023-02-24T17:53:25;5.20;48.60
74294;DHT22;64044;59.904;10.738;2023-02-24T17:56:03;5.20;48.70
74294;DHT22;64044;59.904;10.738;2023-02-24T17:58:29;5.00;48.40
74294;DHT22;64044;59.904;10.738;2023-02-24T18:00:55;5.00;48.60
74294;DHT22;64044;59.904;10.738;2023-02-24T18:03:21;5.00;48.60
74294;DHT22;64044;59.904;10.738;2023-02-24T18:05:47;4.90;48.50
74294;DHT22;64044;59.904;10.738;2023-02-24T18:08:12;4.90;48.70
74294;DHT22;64044;59.904;10.738;2023-02-24T18:10:38;4.80;48.60
74294;DHT22;64044;59.904;10.738;2023-02-24T18:13:04;4.80;48.80
74294;DHT22;64044;59.904;10.738;2023-02-24T18:15:29;4.70;48.90
74294;DHT22;64044;59.904;10.738;2023-02-24T18:17:55;4.70;48.90
74294;DHT22;64044;59.904;10.738;2023-02-24T18:20:21;4.60;48.90
74294;DHT22;64044;59.904;10.738;2023-02-24T18:22:46;4.50;49.00
74294;DHT22;64044;59.904;10.738;2023-02-24T18:25:12;4.50;49.10
74294;DHT22;64044;59.904;10.738;2023-02-24T18:27:38;4.40;49.10
74294;DHT22;64044;59.904;10.738;2023-02-24T18:30:04;4.40;49.20
74294;DHT22;64044;59.904;10.738;2023-02-24T18:32:31;4.30;49.20
74294;DHT22;64044;59.904;10.738;2023-02-24T18:34:57;4.30;49.30
74294;DHT22;64044;59.904;10.738;2023-02-24T18:37:23;4.20;49.40
74294;DHT22;64044;59.904;10.738;2023-02-24T18:39:49;4.20;49.60